AIE724 CYGL-CYUL
Flight info
| Callsign | AIE724 |
|---|---|
| Flight time | 1h 27m |
| Altitude | 35000 |
| Route | YVO T722 EPRES DCT BEMOG LFLER7 |
| Aircraft | B738/M-SDE2E3FGHIRWXY/LB1 |
Departure
| Time | 2026-05-07 00:13 |
|---|---|
| Airport | La Grande Rivière Airport (CYGL) |
Arrival
| Time | 2026-05-07 01:40 |
|---|---|
| Airport | Montreal / Pierre Elliott Trudeau International Airport (CYUL) |
| Time | Latitude | Longitude | Altitude | Speed | Heading |
|---|---|---|---|---|---|
| 2026-05-06 23:52 | 53.62605 | -77.69611 | 642 ft | 0 kts | 202° |
| 2026-05-07 00:09 | 53.62603 | -77.69609 | 642 ft | 0 kts | 174° |
| 2026-05-07 00:09 | 53.62584 | -77.69582 | 643 ft | 5 kts | 136° |
| 2026-05-07 00:09 | 53.62561 | -77.69537 | 643 ft | 5 kts | 121° |
| 2026-05-07 00:10 | 53.62545 | -77.69484 | 645 ft | 5 kts | 115° |
| 2026-05-07 00:10 | 53.62531 | -77.69430 | 645 ft | 5 kts | 114° |
| 2026-05-07 00:10 | 53.62514 | -77.69366 | 646 ft | 8 kts | 115° |
| 2026-05-07 00:10 | 53.62471 | -77.69281 | 647 ft | 11 kts | 138° |
| 2026-05-07 00:11 | 53.62401 | -77.69182 | 649 ft | 15 kts | 140° |
| 2026-05-07 00:11 | 53.62324 | -77.69074 | 652 ft | 13 kts | 140° |
| 2026-05-07 00:11 | 53.62291 | -77.69034 | 652 ft | 0 kts | 154° |
| 2026-05-07 00:12 | 53.62281 | -77.69027 | 664 ft | 5 kts | 162° |
| 2026-05-07 00:12 | 53.62228 | -77.69059 | 651 ft | 11 kts | 230° |
| 2026-05-07 00:12 | 53.62232 | -77.69177 | 649 ft | 11 kts | 293° |
| 2026-05-07 00:12 | 53.62327 | -77.69568 | 644 ft | 80 kts | 291° |
| 2026-05-07 00:13 | 53.62643 | -77.70890 | 638 ft | 161 kts | 291° |
| 2026-05-07 00:13 | 53.63167 | -77.72559 | 1694 ft | 160 kts | 295° |
| 2026-05-07 00:13 | 53.63651 | -77.74275 | 2854 ft | 165 kts | 293° |
| 2026-05-07 00:13 | 53.64130 | -77.76058 | 3905 ft | 171 kts | 289° |
| 2026-05-07 00:14 | 53.64116 | -77.78142 | 4261 ft | 198 kts | 248° |
| 2026-05-07 00:14 | 53.63043 | -77.79827 | 4610 ft | 231 kts | 206° |
| 2026-05-07 00:14 | 53.61410 | -77.80316 | 5198 ft | 246 kts | 188° |
| 2026-05-07 00:14 | 53.59681 | -77.80356 | 5923 ft | 251 kts | 184° |
| 2026-05-07 00:15 | 53.57918 | -77.80310 | 6632 ft | 255 kts | 184° |
| 2026-05-07 00:15 | 53.56144 | -77.80254 | 7359 ft | 256 kts | 184° |
| 2026-05-07 00:15 | 53.54346 | -77.80207 | 8026 ft | 263 kts | 184° |
| 2026-05-07 00:15 | 53.52469 | -77.80176 | 8506 ft | 280 kts | 184° |
| 2026-05-07 00:16 | 53.50493 | -77.80152 | 9324 ft | 286 kts | 184° |
| 2026-05-07 00:16 | 53.48498 | -77.80134 | 10175 ft | 289 kts | 184° |
| 2026-05-07 00:16 | 53.46431 | -77.80124 | 10635 ft | 308 kts | 184° |
| 2026-05-07 00:16 | 53.44199 | -77.80127 | 10842 ft | 333 kts | 184° |
| 2026-05-07 00:17 | 53.41794 | -77.80133 | 11071 ft | 356 kts | 183° |
| 2026-05-07 00:17 | 53.39263 | -77.80138 | 11527 ft | 369 kts | 183° |
| 2026-05-07 00:17 | 53.36677 | -77.80140 | 12239 ft | 373 kts | 183° |
| 2026-05-07 00:17 | 53.34073 | -77.80141 | 13096 ft | 375 kts | 183° |
| 2026-05-07 00:18 | 53.32343 | -77.80142 | 13622 ft | 377 kts | 183° |
| 2026-05-07 00:18 | 53.29706 | -77.80148 | 14288 ft | 381 kts | 183° |
| 2026-05-07 00:18 | 53.27040 | -77.80156 | 14936 ft | 385 kts | 183° |
| 2026-05-07 00:18 | 53.24344 | -77.80166 | 15598 ft | 389 kts | 183° |
| 2026-05-07 00:19 | 53.21625 | -77.80177 | 16248 ft | 393 kts | 183° |
| 2026-05-07 00:19 | 53.18872 | -77.80188 | 16892 ft | 397 kts | 183° |
| 2026-05-07 00:19 | 53.16091 | -77.80199 | 17530 ft | 401 kts | 183° |
| 2026-05-07 00:19 | 53.13290 | -77.80211 | 18151 ft | 405 kts | 182° |
| 2026-05-07 00:20 | 53.10494 | -77.80222 | 18681 ft | 408 kts | 182° |
| 2026-05-07 00:20 | 53.07651 | -77.80233 | 19252 ft | 410 kts | 182° |
| 2026-05-07 00:20 | 53.04781 | -77.80245 | 19821 ft | 413 kts | 182° |
| 2026-05-07 00:20 | 53.01886 | -77.80257 | 20350 ft | 416 kts | 182° |
| 2026-05-07 00:21 | 52.98987 | -77.80268 | 20880 ft | 419 kts | 182° |
| 2026-05-07 00:21 | 52.96049 | -77.80280 | 21401 ft | 422 kts | 182° |
| 2026-05-07 00:21 | 52.93099 | -77.80292 | 21904 ft | 425 kts | 182° |
| 2026-05-07 00:21 | 52.90125 | -77.80307 | 22413 ft | 428 kts | 181° |
| 2026-05-07 00:22 | 52.87143 | -77.80320 | 22915 ft | 430 kts | 182° |
| 2026-05-07 00:22 | 52.84135 | -77.80330 | 23408 ft | 432 kts | 181° |
| 2026-05-07 00:22 | 52.81122 | -77.80346 | 23818 ft | 434 kts | 180° |
| 2026-05-07 00:22 | 52.78079 | -77.80357 | 24152 ft | 438 kts | 182° |
| 2026-05-07 00:23 | 52.75067 | -77.80369 | 24552 ft | 440 kts | 181° |
| 2026-05-07 00:23 | 52.72009 | -77.80384 | 24901 ft | 442 kts | 181° |
| 2026-05-07 00:23 | 52.68924 | -77.80396 | 25290 ft | 444 kts | 181° |
| 2026-05-07 00:23 | 52.65823 | -77.80403 | 25648 ft | 446 kts | 181° |
| 2026-05-07 00:24 | 52.62712 | -77.80415 | 25965 ft | 449 kts | 180° |
| 2026-05-07 00:24 | 52.59571 | -77.80430 | 26312 ft | 451 kts | 180° |
| 2026-05-07 00:24 | 52.56424 | -77.80444 | 26656 ft | 453 kts | 180° |
| 2026-05-07 00:24 | 52.53263 | -77.80460 | 26999 ft | 455 kts | 181° |
| 2026-05-07 00:25 | 52.50095 | -77.80473 | 27331 ft | 456 kts | 182° |
| 2026-05-07 00:25 | 52.46915 | -77.80486 | 27602 ft | 459 kts | 181° |
| 2026-05-07 00:25 | 52.43710 | -77.80497 | 27894 ft | 461 kts | 181° |
| 2026-05-07 00:25 | 52.40504 | -77.80508 | 28346 ft | 460 kts | 180° |
| 2026-05-07 00:26 | 52.37313 | -77.80519 | 28898 ft | 456 kts | 181° |
| 2026-05-07 00:26 | 52.34141 | -77.80533 | 29351 ft | 455 kts | 181° |
| 2026-05-07 00:26 | 52.30984 | -77.80548 | 29798 ft | 454 kts | 181° |
| 2026-05-07 00:26 | 52.27859 | -77.80562 | 30129 ft | 454 kts | 181° |
| 2026-05-07 00:27 | 52.24693 | -77.80575 | 30403 ft | 455 kts | 181° |
| 2026-05-07 00:27 | 52.21517 | -77.80588 | 30716 ft | 456 kts | 181° |
| 2026-05-07 00:27 | 52.18341 | -77.80601 | 31010 ft | 456 kts | 181° |
| 2026-05-07 00:27 | 52.15169 | -77.80614 | 31320 ft | 456 kts | 181° |
| 2026-05-07 00:28 | 52.11994 | -77.80627 | 31612 ft | 457 kts | 181° |
| 2026-05-07 00:28 | 52.08809 | -77.80639 | 31902 ft | 457 kts | 181° |
| 2026-05-07 00:28 | 52.05628 | -77.80652 | 32205 ft | 457 kts | 181° |
| 2026-05-07 00:28 | 52.02444 | -77.80665 | 32523 ft | 457 kts | 182° |
| 2026-05-07 00:29 | 51.99266 | -77.80678 | 32819 ft | 457 kts | 182° |
| 2026-05-07 00:29 | 51.96085 | -77.80691 | 33121 ft | 457 kts | 182° |
| 2026-05-07 00:30 | 51.86538 | -77.80729 | 33958 ft | 457 kts | 182° |
| 2026-05-07 00:30 | 51.83350 | -77.80742 | 34209 ft | 457 kts | 182° |
| 2026-05-07 00:30 | 51.80211 | -77.80754 | 34442 ft | 457 kts | 182° |
| 2026-05-07 00:30 | 51.77031 | -77.80767 | 34665 ft | 457 kts | 182° |
| 2026-05-07 00:31 | 51.73848 | -77.80779 | 34862 ft | 458 kts | 182° |
| 2026-05-07 00:31 | 51.70649 | -77.80792 | 34841 ft | 461 kts | 182° |
| 2026-05-07 00:31 | 51.64246 | -77.80817 | 34849 ft | 458 kts | 182° |
| 2026-05-07 00:32 | 51.57915 | -77.80841 | 34862 ft | 453 kts | 182° |
| 2026-05-07 00:32 | 51.51620 | -77.80866 | 34870 ft | 452 kts | 182° |
| 2026-05-07 00:33 | 51.45332 | -77.80892 | 34869 ft | 452 kts | 182° |
| 2026-05-07 00:33 | 51.39037 | -77.80917 | 34864 ft | 452 kts | 182° |
| 2026-05-07 00:34 | 51.32786 | -77.80942 | 34875 ft | 452 kts | 182° |
| 2026-05-07 00:34 | 51.26489 | -77.80967 | 34878 ft | 453 kts | 182° |
| 2026-05-07 00:35 | 51.20175 | -77.80992 | 34877 ft | 454 kts | 182° |
| 2026-05-07 00:35 | 51.13856 | -77.81016 | 34881 ft | 454 kts | 182° |
| 2026-05-07 00:36 | 51.07527 | -77.81041 | 34879 ft | 455 kts | 182° |
| 2026-05-07 00:36 | 51.01197 | -77.81065 | 34880 ft | 455 kts | 182° |
| 2026-05-07 00:37 | 50.94859 | -77.81090 | 34883 ft | 455 kts | 182° |
| 2026-05-07 00:37 | 50.88566 | -77.81114 | 34881 ft | 455 kts | 182° |
| 2026-05-07 00:38 | 50.82227 | -77.81138 | 34885 ft | 455 kts | 182° |
| 2026-05-07 00:38 | 50.75898 | -77.81162 | 34884 ft | 455 kts | 182° |
| 2026-05-07 00:39 | 50.69562 | -77.81186 | 34885 ft | 455 kts | 182° |
| 2026-05-07 00:39 | 50.63233 | -77.81210 | 34885 ft | 454 kts | 182° |
| 2026-05-07 00:40 | 50.56926 | -77.81232 | 34871 ft | 453 kts | 183° |
| 2026-05-07 00:40 | 50.50640 | -77.81256 | 34879 ft | 450 kts | 183° |
| 2026-05-07 00:41 | 50.44383 | -77.81281 | 34881 ft | 449 kts | 183° |
| 2026-05-07 00:41 | 50.38141 | -77.81305 | 34883 ft | 448 kts | 183° |
| 2026-05-07 00:42 | 50.31901 | -77.81329 | 34886 ft | 448 kts | 183° |
| 2026-05-07 00:42 | 50.25665 | -77.81352 | 34886 ft | 448 kts | 183° |
| 2026-05-07 00:43 | 50.19418 | -77.81376 | 34884 ft | 449 kts | 183° |
| 2026-05-07 00:43 | 50.13237 | -77.81399 | 34887 ft | 450 kts | 183° |
| 2026-05-07 00:44 | 50.06967 | -77.81423 | 34886 ft | 451 kts | 183° |
| 2026-05-07 00:44 | 50.00687 | -77.81446 | 34886 ft | 452 kts | 183° |
| 2026-05-07 00:45 | 49.94386 | -77.81469 | 34887 ft | 452 kts | 183° |
| 2026-05-07 00:45 | 49.88087 | -77.81492 | 34888 ft | 453 kts | 183° |
| 2026-05-07 00:46 | 49.81784 | -77.81515 | 34889 ft | 453 kts | 183° |
| 2026-05-07 00:46 | 49.75516 | -77.81538 | 34871 ft | 452 kts | 183° |
| 2026-05-07 00:47 | 49.69224 | -77.81561 | 34885 ft | 452 kts | 183° |
| 2026-05-07 00:47 | 49.62936 | -77.81584 | 34888 ft | 451 kts | 183° |
| 2026-05-07 00:48 | 49.56658 | -77.81607 | 34890 ft | 451 kts | 183° |
| 2026-05-07 00:48 | 49.50396 | -77.81627 | 34882 ft | 448 kts | 184° |
| 2026-05-07 00:49 | 49.44203 | -77.81650 | 34887 ft | 446 kts | 184° |
| 2026-05-07 00:49 | 49.37998 | -77.81673 | 34893 ft | 445 kts | 184° |
| 2026-05-07 00:50 | 49.31808 | -77.81696 | 34873 ft | 444 kts | 184° |
| 2026-05-07 00:50 | 49.25634 | -77.81718 | 34887 ft | 444 kts | 184° |
| 2026-05-07 00:51 | 49.19470 | -77.81741 | 34895 ft | 444 kts | 184° |
| 2026-05-07 00:51 | 49.13308 | -77.81764 | 34894 ft | 445 kts | 184° |
| 2026-05-07 00:52 | 49.07107 | -77.81787 | 34887 ft | 446 kts | 184° |
| 2026-05-07 00:52 | 49.00888 | -77.81809 | 34895 ft | 447 kts | 184° |
| 2026-05-07 00:53 | 48.94666 | -77.81831 | 34891 ft | 448 kts | 184° |
| 2026-05-07 00:53 | 48.88423 | -77.81853 | 34886 ft | 449 kts | 184° |
| 2026-05-07 00:54 | 48.82217 | -77.81875 | 34880 ft | 449 kts | 185° |
| 2026-05-07 00:54 | 48.75972 | -77.81896 | 34886 ft | 448 kts | 185° |
| 2026-05-07 00:55 | 48.69735 | -77.81918 | 34888 ft | 448 kts | 185° |
| 2026-05-07 00:55 | 48.63501 | -77.81939 | 34872 ft | 448 kts | 185° |
| 2026-05-07 00:56 | 48.57270 | -77.81961 | 34887 ft | 447 kts | 185° |
| 2026-05-07 00:56 | 48.51046 | -77.81983 | 34892 ft | 447 kts | 185° |
| 2026-05-07 00:57 | 48.44846 | -77.82003 | 34875 ft | 444 kts | 185° |
| 2026-05-07 00:57 | 48.38694 | -77.82025 | 34885 ft | 442 kts | 185° |
| 2026-05-07 00:58 | 48.32592 | -77.82047 | 34889 ft | 440 kts | 185° |
| 2026-05-07 00:58 | 48.26463 | -77.82069 | 34886 ft | 440 kts | 185° |
| 2026-05-07 00:59 | 48.17296 | -77.80773 | 34849 ft | 453 kts | 167° |
| 2026-05-07 01:00 | 48.11582 | -77.76510 | 34841 ft | 466 kts | 153° |
| 2026-05-07 01:00 | 48.06181 | -77.71078 | 34830 ft | 469 kts | 152° |
| 2026-05-07 01:01 | 48.00766 | -77.65610 | 34835 ft | 469 kts | 152° |
| 2026-05-07 01:01 | 47.95316 | -77.60204 | 34810 ft | 470 kts | 153° |
| 2026-05-07 01:02 | 47.89887 | -77.54876 | 34847 ft | 470 kts | 153° |
| 2026-05-07 01:02 | 47.84410 | -77.49523 | 34868 ft | 471 kts | 153° |
| 2026-05-07 01:03 | 47.78933 | -77.44181 | 34882 ft | 471 kts | 153° |
| 2026-05-07 01:03 | 47.73442 | -77.38836 | 34859 ft | 472 kts | 153° |
| 2026-05-07 01:04 | 47.67945 | -77.33499 | 34875 ft | 471 kts | 153° |
| 2026-05-07 01:04 | 47.62488 | -77.28213 | 34867 ft | 471 kts | 154° |
| 2026-05-07 01:05 | 47.57001 | -77.22912 | 34875 ft | 470 kts | 154° |
| 2026-05-07 01:05 | 47.51517 | -77.17628 | 34872 ft | 470 kts | 154° |
| 2026-05-07 01:06 | 47.46962 | -77.13249 | 34869 ft | 469 kts | 154° |
| 2026-05-07 01:06 | 47.40602 | -77.07151 | 34866 ft | 468 kts | 154° |
| 2026-05-07 01:07 | 47.36056 | -77.02802 | 34869 ft | 468 kts | 154° |
| 2026-05-07 01:07 | 47.30555 | -76.97552 | 34877 ft | 468 kts | 154° |
| 2026-05-07 01:08 | 47.25084 | -76.92342 | 34848 ft | 468 kts | 155° |
| 2026-05-07 01:08 | 47.19644 | -76.87183 | 34861 ft | 468 kts | 155° |
| 2026-05-07 01:09 | 47.14158 | -76.82002 | 34860 ft | 468 kts | 155° |
| 2026-05-07 01:09 | 47.08673 | -76.76830 | 34866 ft | 469 kts | 155° |
| 2026-05-07 01:10 | 47.03179 | -76.71662 | 34844 ft | 468 kts | 155° |
| 2026-05-07 01:10 | 46.97695 | -76.66512 | 34850 ft | 468 kts | 156° |
| 2026-05-07 01:11 | 46.92216 | -76.61380 | 34849 ft | 467 kts | 156° |
| 2026-05-07 01:11 | 46.86731 | -76.56283 | 34851 ft | 467 kts | 156° |
| 2026-05-07 01:12 | 46.81183 | -76.51344 | 34846 ft | 466 kts | 157° |
| 2026-05-07 01:12 | 46.75663 | -76.46487 | 34820 ft | 466 kts | 158° |
| 2026-05-07 01:13 | 46.70106 | -76.41585 | 34843 ft | 466 kts | 158° |
| 2026-05-07 01:13 | 46.64563 | -76.36693 | 34849 ft | 466 kts | 158° |
| 2026-05-07 01:14 | 46.59022 | -76.31808 | 34839 ft | 466 kts | 158° |
| 2026-05-07 01:14 | 46.53510 | -76.26962 | 34824 ft | 465 kts | 158° |
| 2026-05-07 01:15 | 46.47967 | -76.22100 | 34838 ft | 465 kts | 158° |
| 2026-05-07 01:15 | 46.42428 | -76.17254 | 34832 ft | 465 kts | 158° |
| 2026-05-07 01:16 | 46.36888 | -76.12418 | 34757 ft | 466 kts | 158° |
| 2026-05-07 01:16 | 46.34095 | -76.09987 | 34296 ft | 467 kts | 158° |
| 2026-05-07 01:16 | 46.31318 | -76.07567 | 33844 ft | 463 kts | 158° |
| 2026-05-07 01:16 | 46.28567 | -76.05172 | 33303 ft | 460 kts | 158° |
| 2026-05-07 01:17 | 46.25835 | -76.02799 | 32778 ft | 458 kts | 158° |
| 2026-05-07 01:17 | 46.23152 | -76.00428 | 32203 ft | 460 kts | 154° |
| 2026-05-07 01:17 | 46.20791 | -75.97174 | 31594 ft | 482 kts | 134° |
| 2026-05-07 01:17 | 46.19126 | -75.92831 | 31064 ft | 498 kts | 116° |
| 2026-05-07 01:18 | 46.18326 | -75.87985 | 30526 ft | 506 kts | 105° |
| 2026-05-07 01:18 | 46.17815 | -75.82968 | 29967 ft | 504 kts | 104° |
| 2026-05-07 01:18 | 46.17351 | -75.77994 | 29243 ft | 494 kts | 104° |
| 2026-05-07 01:18 | 46.16877 | -75.73139 | 28533 ft | 484 kts | 105° |
| 2026-05-07 01:19 | 46.16366 | -75.68360 | 27857 ft | 480 kts | 106° |
| 2026-05-07 01:19 | 46.15829 | -75.63615 | 27200 ft | 477 kts | 106° |
| 2026-05-07 01:19 | 46.15288 | -75.58898 | 26548 ft | 475 kts | 106° |
| 2026-05-07 01:19 | 46.14764 | -75.54204 | 25912 ft | 474 kts | 105° |
| 2026-05-07 01:20 | 46.14311 | -75.49510 | 25271 ft | 472 kts | 103° |
| 2026-05-07 01:20 | 46.13894 | -75.44845 | 24731 ft | 462 kts | 103° |
| 2026-05-07 01:20 | 46.13493 | -75.40308 | 24243 ft | 451 kts | 103° |
| 2026-05-07 01:20 | 46.13096 | -75.35909 | 23770 ft | 441 kts | 104° |
| 2026-05-07 01:21 | 46.12692 | -75.31553 | 23285 ft | 438 kts | 104° |
| 2026-05-07 01:21 | 46.12268 | -75.27129 | 22789 ft | 443 kts | 104° |
| 2026-05-07 01:21 | 46.11850 | -75.22802 | 22323 ft | 440 kts | 104° |
| 2026-05-07 01:21 | 46.11433 | -75.18456 | 21840 ft | 436 kts | 104° |
| 2026-05-07 01:22 | 46.11019 | -75.14147 | 21337 ft | 432 kts | 104° |
| 2026-05-07 01:22 | 46.10606 | -75.09878 | 20883 ft | 428 kts | 103° |
| 2026-05-07 01:22 | 46.10196 | -75.05656 | 20427 ft | 424 kts | 103° |
| 2026-05-07 01:22 | 46.09787 | -75.01459 | 19979 ft | 421 kts | 103° |
| 2026-05-07 01:23 | 46.09379 | -74.97299 | 19525 ft | 418 kts | 103° |
| 2026-05-07 01:23 | 46.08972 | -74.93164 | 19091 ft | 415 kts | 103° |
| 2026-05-07 01:23 | 46.08566 | -74.89055 | 18673 ft | 413 kts | 103° |
| 2026-05-07 01:23 | 46.08162 | -74.84971 | 18247 ft | 411 kts | 103° |
| 2026-05-07 01:24 | 46.07756 | -74.80899 | 17784 ft | 410 kts | 103° |
| 2026-05-07 01:24 | 46.07351 | -74.76845 | 17302 ft | 408 kts | 103° |
| 2026-05-07 01:24 | 46.06948 | -74.72815 | 16811 ft | 405 kts | 103° |
| 2026-05-07 01:24 | 46.06526 | -74.68824 | 16341 ft | 399 kts | 106° |
| 2026-05-07 01:25 | 46.05742 | -74.65116 | 15862 ft | 383 kts | 120° |
| 2026-05-07 01:25 | 46.04581 | -74.61749 | 15430 ft | 369 kts | 123° |
| 2026-05-07 01:25 | 46.03415 | -74.58520 | 15036 ft | 359 kts | 123° |
| 2026-05-07 01:25 | 46.02282 | -74.55380 | 14663 ft | 349 kts | 123° |
| 2026-05-07 01:26 | 46.01175 | -74.52310 | 14292 ft | 341 kts | 123° |
| 2026-05-07 01:26 | 46.00101 | -74.49322 | 13928 ft | 333 kts | 123° |
| 2026-05-07 01:26 | 45.99044 | -74.46370 | 13559 ft | 328 kts | 123° |
| 2026-05-07 01:26 | 45.98007 | -74.43472 | 13156 ft | 325 kts | 122° |
| 2026-05-07 01:27 | 45.96980 | -74.40596 | 12814 ft | 320 kts | 122° |
| 2026-05-07 01:27 | 45.95973 | -74.37769 | 12477 ft | 316 kts | 122° |
| 2026-05-07 01:27 | 45.94974 | -74.34968 | 12165 ft | 314 kts | 122° |
| 2026-05-07 01:27 | 45.93977 | -74.32177 | 11868 ft | 315 kts | 122° |
| 2026-05-07 01:28 | 45.92972 | -74.29366 | 11575 ft | 317 kts | 122° |
| 2026-05-07 01:28 | 45.91963 | -74.26547 | 11265 ft | 318 kts | 121° |
| 2026-05-07 01:28 | 45.90955 | -74.23727 | 10968 ft | 316 kts | 121° |
| 2026-05-07 01:28 | 45.89963 | -74.20950 | 10675 ft | 310 kts | 121° |
| 2026-05-07 01:29 | 45.88988 | -74.18224 | 10433 ft | 303 kts | 121° |
| 2026-05-07 01:29 | 45.88029 | -74.15550 | 10179 ft | 300 kts | 121° |
| 2026-05-07 01:29 | 45.87081 | -74.12907 | 9933 ft | 297 kts | 121° |
| 2026-05-07 01:29 | 45.86143 | -74.10297 | 9657 ft | 296 kts | 121° |
| 2026-05-07 01:30 | 45.85209 | -74.07700 | 9326 ft | 293 kts | 120° |
| 2026-05-07 01:30 | 45.84281 | -74.05124 | 8996 ft | 288 kts | 120° |
| 2026-05-07 01:30 | 45.83366 | -74.02582 | 8659 ft | 285 kts | 120° |
| 2026-05-07 01:30 | 45.82462 | -74.00074 | 8396 ft | 280 kts | 120° |
| 2026-05-07 01:31 | 45.81576 | -73.97618 | 8217 ft | 275 kts | 120° |
| 2026-05-07 01:31 | 45.80696 | -73.95185 | 8048 ft | 274 kts | 120° |
| 2026-05-07 01:31 | 45.79813 | -73.92745 | 7864 ft | 278 kts | 120° |
| 2026-05-07 01:31 | 45.78910 | -73.90255 | 7588 ft | 285 kts | 119° |
| 2026-05-07 01:32 | 45.77993 | -73.87725 | 7265 ft | 286 kts | 119° |
| 2026-05-07 01:32 | 45.77087 | -73.85224 | 6924 ft | 280 kts | 118° |
| 2026-05-07 01:32 | 45.76198 | -73.82773 | 6596 ft | 275 kts | 118° |
| 2026-05-07 01:32 | 45.75320 | -73.80352 | 6267 ft | 271 kts | 118° |
| 2026-05-07 01:33 | 45.74459 | -73.77983 | 5926 ft | 267 kts | 118° |
| 2026-05-07 01:33 | 45.73605 | -73.75634 | 5575 ft | 264 kts | 118° |
| 2026-05-07 01:33 | 45.72762 | -73.73317 | 5222 ft | 261 kts | 118° |
| 2026-05-07 01:33 | 45.71929 | -73.71032 | 4898 ft | 258 kts | 118° |
| 2026-05-07 01:34 | 45.71104 | -73.68771 | 4560 ft | 255 kts | 118° |
| 2026-05-07 01:34 | 45.70289 | -73.66538 | 4258 ft | 251 kts | 118° |
| 2026-05-07 01:34 | 45.69487 | -73.64357 | 3975 ft | 245 kts | 127° |
| 2026-05-07 01:34 | 45.68265 | -73.62802 | 3711 ft | 235 kts | 154° |
| 2026-05-07 01:35 | 45.66853 | -73.61665 | 3462 ft | 230 kts | 158° |
| 2026-05-07 01:35 | 45.65359 | -73.60942 | 3207 ft | 223 kts | 172° |
| 2026-05-07 01:35 | 45.63860 | -73.60530 | 3022 ft | 212 kts | 181° |
| 2026-05-07 01:35 | 45.62475 | -73.60782 | 3000 ft | 193 kts | 197° |
| 2026-05-07 01:36 | 45.61181 | -73.61157 | 2988 ft | 188 kts | 196° |
| 2026-05-07 01:36 | 45.59896 | -73.61516 | 2995 ft | 188 kts | 196° |
| 2026-05-07 01:36 | 45.58626 | -73.61867 | 2999 ft | 188 kts | 196° |
| 2026-05-07 01:36 | 45.57301 | -73.62269 | 2519 ft | 201 kts | 201° |
| 2026-05-07 01:37 | 45.56048 | -73.63165 | 2081 ft | 200 kts | 223° |
| 2026-05-07 01:37 | 45.55080 | -73.64561 | 1717 ft | 199 kts | 230° |
| 2026-05-07 01:37 | 45.54151 | -73.65996 | 1400 ft | 193 kts | 229° |
| 2026-05-07 01:37 | 45.53269 | -73.67340 | 1280 ft | 179 kts | 227° |
| 2026-05-07 01:38 | 45.52375 | -73.68506 | 1158 ft | 165 kts | 223° |
| 2026-05-07 01:38 | 45.51559 | -73.69514 | 1078 ft | 147 kts | 223° |
| 2026-05-07 01:38 | 45.50816 | -73.70400 | 915 ft | 138 kts | 221° |
| 2026-05-07 01:38 | 45.50100 | -73.71309 | 672 ft | 138 kts | 223° |
| 2026-05-07 01:39 | 45.49395 | -73.72216 | 432 ft | 136 kts | 222° |
| 2026-05-07 01:39 | 45.48703 | -73.73110 | 255 ft | 136 kts | 223° |
| 2026-05-07 01:39 | 45.48006 | -73.74011 | 125 ft | 137 kts | 223° |
| 2026-05-07 01:39 | 45.47399 | -73.74809 | 111 ft | 89 kts | 223° |
| 2026-05-07 01:40 | 45.47031 | -73.75292 | 107 ft | 55 kts | 222° |
| 2026-05-07 01:40 | 45.46821 | -73.75538 | 106 ft | 29 kts | 207° |
| 2026-05-07 01:40 | 45.46649 | -73.75616 | 105 ft | 24 kts | 193° |
| 2026-05-07 01:40 | 45.46505 | -73.75664 | 104 ft | 2 kts | 193° |
| 2026-05-07 01:41 | 45.46467 | -73.75676 | 104 ft | 10 kts | 193° |
| 2026-05-07 01:41 | 45.46397 | -73.75699 | 103 ft | 11 kts | 193° |
| 2026-05-07 01:41 | 45.46324 | -73.75721 | 103 ft | 10 kts | 192° |
| 2026-05-07 01:41 | 45.46254 | -73.75729 | 103 ft | 10 kts | 178° |
| 2026-05-07 01:42 | 45.46181 | -73.75725 | 101 ft | 10 kts | 178° |
| 2026-05-07 01:42 | 45.46133 | -73.75668 | 100 ft | 10 kts | 95° |
| 2026-05-07 01:42 | 45.46135 | -73.75569 | 101 ft | 10 kts | 88° |
| 2026-05-07 01:42 | 45.46138 | -73.75471 | 101 ft | 10 kts | 88° |
| 2026-05-07 01:43 | 45.46130 | -73.75381 | 101 ft | 9 kts | 124° |
| 2026-05-07 01:43 | 45.46068 | -73.75360 | 103 ft | 9 kts | 161° |
| 2026-05-07 01:43 | 45.46055 | -73.75288 | 103 ft | 10 kts | 52° |
| 2026-05-07 01:43 | 45.46087 | -73.75249 | 102 ft | 0 kts | 37° |